createdAt,value
2019-01-15T00:00:30.025Z,0.68
2019-01-15T00:03:01.646Z,0.70
2019-01-15T00:05:33.059Z,0.66
2019-01-15T00:08:04.470Z,0.64
2019-01-15T00:10:35.589Z,0.55
2019-01-15T00:13:07.142Z,0.55
2019-01-15T00:15:38.483Z,0.60
2019-01-15T00:18:10.100Z,0.59
2019-01-15T00:20:41.359Z,0.46
2019-01-15T00:23:12.854Z,0.56
2019-01-15T00:25:44.061Z,0.49
2019-01-15T00:28:15.445Z,0.40
2019-01-15T00:30:46.957Z,0.39
2019-01-15T00:33:18.585Z,0.46
2019-01-15T00:35:49.678Z,0.29
2019-01-15T00:38:21.037Z,0.24
2019-01-15T00:40:52.459Z,0.22
2019-01-15T00:43:23.837Z,0.25
2019-01-15T00:45:54.882Z,0.25
2019-01-15T00:48:26.037Z,0.11
2019-01-15T00:50:57.538Z,0.05
2019-01-15T00:53:28.802Z,-0.02
2019-01-15T00:56:00.259Z,-0.12
2019-01-15T00:58:31.365Z,-0.16
2019-01-15T01:01:02.682Z,-0.09
2019-01-15T01:03:35.235Z,-0.01
2019-01-15T01:06:06.779Z,-0.09
2019-01-15T01:08:38.082Z,-0.16
2019-01-15T01:11:10.019Z,-0.11
2019-01-15T01:13:41.153Z,-0.19
2019-01-15T01:16:12.168Z,-0.23
2019-01-15T01:18:43.650Z,-0.29
2019-01-15T01:21:14.725Z,-0.21
2019-01-15T01:23:46.225Z,-0.25
2019-01-15T01:26:17.430Z,-0.14
2019-01-15T01:28:49.056Z,-0.27
2019-01-15T01:31:20.323Z,-0.28
2019-01-15T01:33:51.632Z,-0.27
2019-01-15T01:36:22.922Z,-0.23
2019-01-15T01:38:54.357Z,-0.22
2019-01-15T01:41:25.743Z,-0.29
2019-01-15T01:43:57.133Z,-0.36
2019-01-15T01:46:28.490Z,-0.34
2019-01-15T01:48:59.827Z,-0.51
2019-01-15T01:51:31.023Z,-0.57
2019-01-15T01:54:02.342Z,-0.66
2019-01-15T01:56:33.604Z,-0.65
2019-01-15T01:59:04.969Z,-0.68
2019-01-15T02:01:36.296Z,-0.66
2019-01-15T02:04:07.685Z,-0.62
2019-01-15T02:06:39.013Z,-0.65
2019-01-15T02:09:10.706Z,-0.54
2019-01-15T02:11:41.741Z,-0.46
2019-01-15T02:14:13.030Z,-0.44
2019-01-15T02:16:44.387Z,-0.39
2019-01-15T02:19:15.894Z,-0.47
2019-01-15T02:21:47.082Z,-0.50
2019-01-15T02:24:18.549Z,-0.43
2019-01-15T02:26:51.499Z,-0.43
2019-01-15T02:29:22.765Z,-0.47
2019-01-15T02:31:54.109Z,-0.41
2019-01-15T02:34:25.508Z,-0.43
2019-01-15T02:36:56.927Z,-0.47
2019-01-15T02:39:28.105Z,-0.44
2019-01-15T02:41:59.415Z,-0.53
2019-01-15T02:44:30.910Z,-0.52
2019-01-15T02:47:02.067Z,-0.57
2019-01-15T02:49:33.473Z,-0.64
2019-01-15T02:52:04.869Z,-0.67
2019-01-15T02:54:36.266Z,-0.65
2019-01-15T02:57:07.414Z,-0.68
2019-01-15T02:59:38.487Z,-0.60
2019-01-15T03:02:09.875Z,-0.60
2019-01-15T03:04:41.357Z,-0.63
2019-01-15T03:07:12.525Z,-0.72
2019-01-15T03:09:43.874Z,-0.98
2019-01-15T03:12:15.373Z,-0.85
2019-01-15T03:14:46.699Z,-0.87
2019-01-15T03:17:18.092Z,-0.87
2019-01-15T03:19:49.290Z,-0.97
2019-01-15T03:22:20.598Z,-0.89
2019-01-15T03:24:51.872Z,-0.93
2019-01-15T03:27:24.101Z,-1.00
2019-01-15T03:29:55.609Z,-1.03
2019-01-15T03:32:27.004Z,-1.04
2019-01-15T03:34:58.386Z,-1.24
2019-01-15T03:37:29.683Z,-1.29
2019-01-15T03:40:01.192Z,-1.34
2019-01-15T03:42:32.527Z,-1.36
2019-01-15T03:45:05.162Z,-1.41
2019-01-15T03:47:36.627Z,-1.32
2019-01-15T03:50:08.025Z,-1.36
2019-01-15T03:52:39.462Z,-1.18
2019-01-15T03:55:11.452Z,-1.15
2019-01-15T03:57:43.268Z,-1.15
2019-01-15T04:00:25.380Z,-1.07
2019-01-15T04:02:57.583Z,-1.24
2019-01-15T04:05:29.025Z,-1.28
2019-01-15T04:08:01.088Z,-1.14
2019-01-15T04:10:32.641Z,-1.34
2019-01-15T04:13:11.042Z,-1.43
2019-01-15T04:15:36.978Z,-1.40
2019-01-15T04:18:08.447Z,-1.47
2019-01-15T04:20:39.694Z,-1.42
2019-01-15T04:23:11.067Z,-1.38
2019-01-15T04:25:42.452Z,-1.37
2019-01-15T04:28:13.867Z,-1.45
2019-01-15T04:30:45.111Z,-1.29
2019-01-15T04:33:16.450Z,-1.31
2019-01-15T04:35:47.824Z,-1.46
2019-01-15T04:38:19.028Z,-1.56
2019-01-15T04:40:50.450Z,-1.74
2019-01-15T04:43:21.663Z,-1.66
2019-01-15T04:45:52.964Z,-1.69
2019-01-15T04:48:24.342Z,-1.67
2019-01-15T04:50:55.660Z,-1.70
2019-01-15T04:53:26.687Z,-1.58
2019-01-15T04:55:57.792Z,-1.70
2019-01-15T04:58:28.852Z,-1.73
2019-01-15T05:00:59.988Z,-1.64
2019-01-15T05:03:31.145Z,-1.54
2019-01-15T05:06:02.290Z,-1.56
2019-01-15T05:08:33.416Z,-1.47
2019-01-15T05:11:04.765Z,-1.39
2019-01-15T05:13:36.103Z,-1.29
2019-01-15T05:16:07.420Z,-1.23
2019-01-15T05:18:38.608Z,-1.35
2019-01-15T05:21:09.902Z,-1.27
2019-01-15T05:23:40.915Z,-1.21
2019-01-15T05:26:12.080Z,-1.21
2019-01-15T05:28:43.472Z,-1.10
2019-01-15T05:31:14.878Z,-1.04
2019-01-15T05:33:46.292Z,-1.02
2019-01-15T05:36:17.420Z,-1.08
2019-01-15T05:38:48.947Z,-0.94
2019-01-15T05:41:20.119Z,-1.06
2019-01-15T05:43:51.186Z,-1.17
2019-01-15T05:46:22.574Z,-1.40
2019-01-15T05:48:53.623Z,-1.39
2019-01-15T05:51:34.610Z,-1.57
2019-01-15T05:54:06.388Z,-1.61
2019-01-15T05:56:37.632Z,-1.52
2019-01-15T05:59:09.164Z,-1.40
2019-01-15T06:01:40.823Z,-1.33
2019-01-15T06:04:12.248Z,-1.30
2019-01-15T06:06:44.470Z,-1.23
2019-01-15T06:09:15.788Z,-1.28
2019-01-15T06:11:46.991Z,-1.28
2019-01-15T06:14:18.263Z,-1.30
2019-01-15T06:16:49.721Z,-1.36
2019-01-15T06:19:21.087Z,-1.36
2019-01-15T06:21:52.521Z,-1.39
2019-01-15T06:24:23.774Z,-1.44
2019-01-15T06:26:55.242Z,-1.52
2019-01-15T06:29:26.672Z,-1.55
2019-01-15T06:31:58.039Z,-1.65
2019-01-15T06:34:29.345Z,-1.47
2019-01-15T06:37:00.814Z,-1.38
2019-01-15T06:39:31.864Z,-1.14
2019-01-15T06:42:03.171Z,-1.01
2019-01-15T06:44:34.311Z,-1.15
2019-01-15T06:47:05.520Z,-1.19
2019-01-15T06:49:36.761Z,-1.12
2019-01-15T06:52:08.424Z,-1.06
2019-01-15T06:54:39.747Z,-0.87
2019-01-15T06:57:11.159Z,-0.83
2019-01-15T06:59:42.255Z,-0.50
2019-01-15T07:02:13.866Z,-0.41
2019-01-15T07:04:45.331Z,-0.27
2019-01-15T07:07:16.726Z,-0.19
2019-01-15T07:09:48.232Z,-0.08
2019-01-15T07:12:19.557Z,-0.23
2019-01-15T07:14:50.825Z,-0.21
2019-01-15T07:17:22.201Z,-0.22
2019-01-15T07:19:53.444Z,-0.43
2019-01-15T07:22:24.913Z,-0.71
2019-01-15T07:24:56.426Z,-0.78
2019-01-15T07:27:27.893Z,-0.87
2019-01-15T07:29:58.989Z,-1.07
2019-01-15T07:32:30.368Z,-1.10
2019-01-15T07:35:01.732Z,-1.15
2019-01-15T07:37:33.175Z,-1.36
2019-01-15T07:40:05.530Z,-1.31
2019-01-15T07:42:36.955Z,-1.41
2019-01-15T07:45:10.080Z,-1.06
2019-01-15T09:05:55.539Z,2.50
2019-01-15T09:08:27.024Z,2.44
2019-01-15T09:10:58.684Z,2.71
2019-01-15T09:13:30.356Z,2.57
2019-01-15T09:16:02.044Z,2.51
2019-01-15T09:18:33.551Z,2.75
2019-01-15T09:21:05.123Z,2.79
2019-01-15T09:23:36.481Z,2.99
2019-01-15T09:26:07.915Z,3.39
2019-01-15T09:28:38.994Z,3.27
2019-01-15T09:31:10.299Z,3.26
2019-01-15T09:33:41.633Z,2.75
2019-01-15T09:36:12.843Z,2.90
2019-01-15T09:38:44.328Z,2.94
2019-01-15T09:41:15.790Z,2.73
2019-01-15T09:43:47.328Z,2.80
2019-01-15T09:46:19.732Z,2.83
2019-01-15T09:48:51.421Z,2.79
2019-01-15T09:51:22.941Z,2.81
2019-01-15T09:53:54.255Z,2.70
2019-01-15T09:56:25.410Z,2.63
2019-01-15T09:58:56.633Z,2.63
2019-01-15T10:01:27.923Z,2.97
2019-01-15T10:03:59.091Z,2.96
2019-01-15T10:06:30.415Z,2.86
2019-01-15T10:09:01.822Z,2.58
2019-01-15T10:11:34.269Z,2.34
2019-01-15T10:14:06.382Z,2.62
2019-01-15T10:16:37.991Z,3.00
2019-01-15T10:19:09.460Z,2.92
2019-01-15T10:21:41.831Z,3.41
2019-01-15T10:24:13.086Z,3.16
2019-01-15T10:26:44.704Z,2.99
2019-01-15T10:29:16.088Z,3.21
2019-01-15T10:32:45.123Z,3.14
2019-01-15T10:35:32.410Z,3.48
2019-01-15T10:38:03.761Z,3.36
2019-01-15T10:40:35.025Z,3.40
2019-01-15T10:43:06.334Z,3.21
2019-01-15T10:45:37.931Z,3.47
2019-01-15T10:48:09.459Z,3.05
2019-01-15T10:50:40.820Z,2.75
2019-01-15T10:53:12.273Z,2.90
2019-01-15T10:55:43.826Z,2.53
2019-01-15T10:58:17.682Z,2.54
2019-01-15T11:00:48.588Z,2.70
2019-01-15T11:03:20.195Z,2.52
2019-01-15T11:05:51.472Z,2.59
2019-01-15T11:08:22.692Z,2.50
2019-01-15T11:10:54.084Z,2.77
2019-01-15T11:13:25.511Z,2.45
2019-01-15T11:15:56.667Z,2.60
2019-01-15T11:18:28.008Z,2.54
2019-01-15T11:20:59.537Z,1.94
2019-01-15T11:23:30.980Z,2.35
2019-01-15T11:26:02.518Z,2.36
2019-01-15T11:28:33.953Z,2.68
2019-01-15T11:31:05.396Z,2.73
2019-01-15T11:33:36.803Z,2.44
2019-01-15T11:36:08.285Z,2.38
2019-01-15T11:38:39.625Z,2.33
2019-01-15T11:41:11.107Z,2.10
2019-01-15T11:43:42.802Z,2.48
2019-01-15T11:46:14.373Z,2.29
2019-01-15T11:48:45.823Z,2.13
2019-01-15T11:51:17.340Z,2.40
2019-01-15T11:53:48.750Z,2.73
2019-01-15T11:56:20.010Z,2.39
2019-01-15T11:58:51.577Z,2.52
2019-01-15T12:01:30.123Z,2.74
2019-01-15T12:04:23.293Z,2.94
2019-01-15T12:07:31.494Z,2.84
2019-01-15T12:10:28.367Z,3.03
2019-01-15T12:13:29.278Z,2.64
2019-01-15T12:16:27.213Z,2.61
2019-01-15T12:19:18.530Z,2.16
2019-01-15T12:22:07.486Z,2.55
2019-01-15T12:24:56.402Z,2.64
2019-01-15T12:27:44.975Z,2.76
2019-01-15T12:30:35.711Z,2.69
2019-01-15T12:33:24.051Z,2.64
2019-01-15T12:36:04.265Z,2.64
2019-01-15T12:39:03.361Z,2.19
2019-01-15T12:41:53.968Z,2.33
2019-01-15T12:44:42.732Z,1.77
2019-01-15T12:47:36.107Z,2.16
2019-01-15T12:50:30.558Z,1.93
2019-01-15T12:53:19.527Z,1.44
2019-01-15T12:56:09.696Z,1.60
2019-01-15T12:59:02.943Z,1.34
2019-01-15T13:01:51.415Z,1.05
2019-01-15T13:04:53.826Z,1.01
2019-01-15T13:07:43.592Z,0.97
2019-01-15T13:10:32.732Z,0.73
2019-01-15T13:13:26.048Z,0.62
2019-01-15T13:16:06.818Z,0.39
2019-01-15T13:19:06.303Z,0.34
2019-01-15T13:21:54.784Z,0.23
2019-01-15T13:24:47.843Z,0.30
2019-01-15T13:27:50.176Z,0.20
2019-01-15T13:30:38.527Z,0.28
2019-01-15T13:33:21.914Z,0.03
2019-01-15T13:36:12.101Z,0.17
2019-01-15T13:39:20.659Z,0.08
2019-01-15T13:42:08.535Z,0.14
2019-01-15T13:44:55.438Z,0.06
2019-01-15T13:47:44.228Z,-0.04
2019-01-15T13:50:33.380Z,-0.22
2019-01-15T13:53:19.498Z,-0.21
2019-01-15T13:56:04.156Z,-0.28
2019-01-15T13:58:53.287Z,-0.37
2019-01-15T14:01:42.087Z,-0.47
2019-01-15T14:04:34.944Z,-0.30
2019-01-15T14:07:40.324Z,-0.32
2019-01-15T14:10:31.920Z,-0.43
2019-01-15T14:13:37.471Z,-0.76
2019-01-15T14:16:39.289Z,-0.65
2019-01-15T14:19:41.316Z,-0.75
2019-01-15T14:22:31.559Z,-0.84
2019-01-15T14:25:20.521Z,-0.90
2019-01-15T14:28:25.651Z,-0.90
2019-01-15T14:31:30.914Z,-1.04
2019-01-15T14:34:19.539Z,-1.10
2019-01-15T14:37:09.840Z,-1.00
2019-01-15T14:40:00.192Z,-1.06
2019-01-15T14:42:50.917Z,-1.02
2019-01-15T14:45:39.721Z,-1.16
2019-01-15T14:48:44.932Z,-1.25
2019-01-15T14:51:37.975Z,-1.28
2019-01-15T14:54:26.096Z,-1.26
2019-01-15T14:57:25.120Z,-1.43
2019-01-15T15:00:30.446Z,-1.44
2019-01-15T15:03:14.709Z,-1.52
2019-01-15T15:06:05.327Z,-1.64
2019-01-15T15:08:47.046Z,-1.65
2019-01-15T15:11:35.932Z,-1.68
2019-01-15T15:14:17.083Z,-1.81
2019-01-15T15:17:12.978Z,-1.77
2019-01-15T15:20:12.208Z,-1.86
2019-01-15T15:23:01.722Z,-1.87
2019-01-15T15:25:51.648Z,-1.81
2019-01-15T15:28:51.537Z,-1.97
2019-01-15T15:31:41.456Z,-2.05
2019-01-15T15:34:25.098Z,-2.10
2019-01-15T15:37:18.093Z,-2.22
2019-01-15T15:40:14.950Z,-2.25
2019-01-15T15:43:13.661Z,-2.23
2019-01-15T15:46:01.615Z,-2.41
2019-01-15T15:48:51.533Z,-2.29
2019-01-15T15:51:44.513Z,-2.32
2019-01-15T15:54:52.495Z,-2.25
2019-01-15T15:57:57.401Z,-2.35
2019-01-15T16:00:47.797Z,-2.22
2019-01-15T16:03:37.694Z,-2.40
2019-01-15T16:06:30.789Z,-2.36
2019-01-15T16:09:31.444Z,-2.57
2019-01-15T16:15:07.653Z,-2.64
2019-01-15T16:17:58.235Z,-2.66
2019-01-15T16:21:06.667Z,-2.76
2019-01-15T16:23:55.980Z,-2.70
2019-01-15T16:26:44.957Z,-2.65
2019-01-15T16:29:41.308Z,-2.69
2019-01-15T16:32:31.692Z,-2.80
2019-01-15T16:35:34.297Z,-2.88
2019-01-15T16:38:23.930Z,-2.88
2019-01-15T16:41:03.529Z,-2.83
2019-01-15T16:43:53.983Z,-2.93
2019-01-15T16:46:42.652Z,-2.85
2019-01-15T16:49:31.656Z,-2.95
2019-01-15T16:52:20.706Z,-3.09
2019-01-15T16:55:17.137Z,-3.09
2019-01-15T16:58:07.199Z,-3.11
2019-01-15T17:00:55.912Z,-3.29
2019-01-15T17:03:44.890Z,-3.26
2019-01-15T17:06:25.837Z,-3.25
2019-01-15T17:09:15.899Z,-3.33
2019-01-15T17:12:04.570Z,-3.20
2019-01-15T17:15:00.349Z,-3.20
2019-01-15T17:17:54.662Z,-3.14
2019-01-15T17:20:44.731Z,-3.12
2019-01-15T17:23:46.529Z,-3.05
2019-01-15T17:26:42.657Z,-3.00
2019-01-15T17:29:35.593Z,-3.02
2019-01-15T17:32:26.478Z,-3.03
2019-01-15T17:35:16.048Z,-2.94
2019-01-15T17:38:09.011Z,-2.99
2019-01-15T17:41:01.521Z,-3.10
2019-01-15T17:43:58.950Z,-3.03
2019-01-15T17:46:54.655Z,-2.96
2019-01-15T17:49:43.200Z,-3.00
2019-01-15T17:52:33.341Z,-3.15
2019-01-15T17:55:29.231Z,-3.21
2019-01-15T17:58:15.215Z,-3.02
2019-01-15T18:01:03.605Z,-3.17
2019-01-15T18:04:45.785Z,-3.13
2019-01-15T18:08:28.390Z,-3.29
2019-01-15T18:11:18.943Z,-3.30
2019-01-15T18:14:52.185Z,-3.38
2019-01-15T18:17:33.398Z,-3.43
2019-01-15T18:20:26.735Z,-3.41
2019-01-15T18:23:53.901Z,-3.52
2019-01-15T18:27:36.504Z,-3.52
2019-01-15T18:31:24.866Z,-3.57
2019-01-15T18:35:04.221Z,-3.62
2019-01-15T18:38:01.298Z,-3.48
2019-01-15T18:41:18.635Z,-3.51
2019-01-15T18:44:10.405Z,-3.43
2019-01-15T18:46:58.715Z,-3.49
2019-01-15T18:49:51.955Z,-3.39
2019-01-15T18:52:40.538Z,-3.38
2019-01-15T18:55:30.760Z,-3.37
2019-01-15T18:58:26.705Z,-3.31
2019-01-15T19:01:25.752Z,-3.43
2019-01-15T19:04:11.515Z,-3.40
2019-01-15T19:06:58.898Z,-3.39
2019-01-15T19:09:49.146Z,-3.35
2019-01-15T19:12:38.480Z,-3.27
2019-01-15T19:15:30.232Z,-3.32
2019-01-15T19:18:20.366Z,-3.26
2019-01-15T19:21:02.546Z,-3.24
2019-01-15T19:23:52.748Z,-3.21
2019-01-15T19:26:57.849Z,-3.21
2019-01-15T19:29:47.414Z,-3.11
2019-01-15T19:32:36.024Z,-3.16
2019-01-15T19:35:46.799Z,-3.10
2019-01-15T19:38:45.664Z,-3.07
2019-01-15T19:41:28.203Z,-3.09
2019-01-15T19:44:16.946Z,-2.97
2019-01-15T19:47:17.238Z,-2.98
2019-01-15T19:50:16.295Z,-2.94
2019-01-15T19:53:06.410Z,-2.84
2019-01-15T19:55:59.518Z,-2.93
2019-01-15T19:58:41.001Z,-2.84
2019-01-15T20:01:41.149Z,-2.82
2019-01-15T20:04:34.751Z,-2.81
2019-01-15T20:07:41.004Z,-2.78
2019-01-15T20:10:45.769Z,-2.83
2019-01-15T20:13:34.108Z,-2.76
2019-01-15T20:16:36.880Z,-2.80
2019-01-15T20:19:29.745Z,-2.96
2019-01-15T20:22:18.901Z,-2.91
2019-01-15T20:25:14.912Z,-2.95
2019-01-15T20:28:17.141Z,-2.92
2019-01-15T20:31:05.511Z,-2.81
2019-01-15T20:33:54.233Z,-2.75
2019-01-15T20:36:36.993Z,-2.81
2019-01-15T20:39:21.521Z,-2.62
2019-01-15T20:42:11.779Z,-2.72
2019-01-15T20:45:00.126Z,-2.68
2019-01-15T20:47:59.167Z,-2.56
2019-01-15T20:50:48.054Z,-2.60
2019-01-15T20:53:47.502Z,-2.76
2019-01-15T20:56:40.442Z,-2.56
2019-01-15T20:59:30.736Z,-2.57
2019-01-15T21:02:18.768Z,-2.55
2019-01-15T21:05:08.861Z,-2.48
2019-01-15T21:08:17.230Z,-2.41
2019-01-15T21:11:02.151Z,-2.41
2019-01-15T21:13:50.837Z,-2.32
2019-01-15T21:16:47.188Z,-2.41
2019-01-15T21:19:40.245Z,-2.40
2019-01-15T21:22:36.583Z,-2.49
2019-01-15T21:25:39.197Z,-2.37
2019-01-15T21:28:38.382Z,-2.39
2019-01-15T21:31:32.951Z,-2.59
2019-01-15T21:34:23.303Z,-2.56
2019-01-15T21:37:13.340Z,-2.54
2019-01-15T21:40:06.505Z,-2.50
2019-01-15T21:43:02.478Z,-2.50
2019-01-15T21:45:58.375Z,-2.53
2019-01-15T21:48:46.940Z,-2.42
2019-01-15T21:51:51.877Z,-2.40
2019-01-15T21:54:57.852Z,-2.42
2019-01-15T21:57:42.126Z,-2.34
2019-01-15T22:00:19.599Z,-2.34
2019-01-15T22:03:07.824Z,-2.39
2019-01-15T22:06:01.798Z,-2.30
2019-01-15T22:08:49.750Z,-2.35
2019-01-15T22:11:38.575Z,-2.32
2019-01-15T22:14:28.759Z,-2.27
2019-01-15T22:17:09.793Z,-2.33
2019-01-15T22:19:59.871Z,-2.21
2019-01-15T22:23:04.642Z,-2.21
2019-01-15T22:25:54.608Z,-2.16
2019-01-15T22:28:43.762Z,-2.20
2019-01-15T22:31:28.072Z,-2.15
2019-01-15T22:34:18.808Z,-2.15
2019-01-15T22:37:23.915Z,-2.08
2019-01-15T22:40:14.097Z,-2.05
2019-01-15T22:43:04.001Z,-2.07
2019-01-15T22:45:57.149Z,-2.17
2019-01-15T22:48:46.020Z,-2.18
2019-01-15T22:51:39.983Z,-2.03
2019-01-15T22:54:26.432Z,-1.97
2019-01-15T22:57:19.431Z,-1.95
2019-01-15T23:00:12.536Z,-1.82
2019-01-15T23:02:57.647Z,-1.91
2019-01-15T23:05:42.524Z,-1.92
2019-01-15T23:08:30.997Z,-1.99
2019-01-15T23:11:36.259Z,-1.93
2019-01-15T23:14:25.441Z,-1.96
2019-01-15T23:17:14.497Z,-1.97
2019-01-15T23:20:03.558Z,-1.98
2019-01-15T23:22:56.877Z,-1.84
2019-01-15T23:25:42.203Z,-1.84
2019-01-15T23:28:35.169Z,-1.79
2019-01-15T23:31:28.096Z,-1.76
2019-01-15T23:34:16.728Z,-1.81
2019-01-15T23:37:05.579Z,-1.76
2019-01-15T23:39:54.386Z,-1.67
2019-01-15T23:42:39.983Z,-1.66
2019-01-15T23:45:33.085Z,-1.65
2019-01-15T23:48:32.372Z,-1.69
2019-01-15T23:51:21.292Z,-1.70
2019-01-15T23:54:12.068Z,-1.58
2019-01-15T23:57:05.271Z,-1.56
2019-01-15T23:59:50.601Z,-1.50
